Time;durP1;ratioP1;P1;durP2;ratioP2;P2;SDS_P1;SDS_P2;PMS_P1;PMS_P2;Temp;Humidity;BMP_temperature;BMP_pressure;BME280_temperature;BME280_humidity;BME280_pressure;Samples;Min_cycle;Max_cycle;Signal;HPM_P1;HPM_P2
2023/12/07 00:00:05;;;;;;;11.93;7.05;;;2.60;99.90;;;;;;4915902;29;20032;-68
2023/12/07 00:02:30;;;;;;;12.20;6.38;;;2.60;99.90;;;;;;4914046;29;20044;-68
2023/12/07 00:04:56;;;;;;;11.35;6.63;;;2.60;99.90;;;;;;4910958;29;20028;-68
2023/12/07 00:07:21;;;;;;;11.20;7.18;;;2.60;99.90;;;;;;4917764;29;20115;-68
2023/12/07 00:09:47;;;;;;;11.10;6.88;;;2.60;99.90;;;;;;4916898;29;20036;-68
2023/12/07 00:12:12;;;;;;;9.02;5.82;;;2.60;99.90;;;;;;4916941;29;20569;-67
2023/12/07 00:14:38;;;;;;;10.52;6.22;;;2.60;99.90;;;;;;4917428;29;20079;-68
2023/12/07 00:17:04;;;;;;;9.75;7.00;;;2.60;99.90;;;;;;4916759;29;20036;-68
2023/12/07 00:19:29;;;;;;;10.55;5.68;;;2.60;99.90;;;;;;4917649;29;20382;-68
2023/12/07 00:21:55;;;;;;;9.93;5.57;;;2.60;99.90;;;;;;4897945;29;20493;-68
2023/12/07 00:24:20;;;;;;;8.02;5.72;;;2.70;99.90;;;;;;4917019;29;20039;-68
2023/12/07 00:26:46;;;;;;;10.15;5.75;;;2.70;99.90;;;;;;4916791;29;20364;-68
2023/12/07 00:29:12;;;;;;;9.13;5.90;;;2.70;99.90;;;;;;4917039;29;20474;-68
2023/12/07 00:31:37;;;;;;;9.40;5.82;;;2.70;99.90;;;;;;4916683;29;20055;-68
2023/12/07 00:34:03;;;;;;;10.07;5.90;;;2.70;99.90;;;;;;4915632;29;20107;-68
2023/12/07 00:36:29;;;;;;;10.45;5.90;;;2.80;99.90;;;;;;4916955;29;20106;-68
2023/12/07 00:38:54;;;;;;;8.85;5.07;;;2.80;99.90;;;;;;4906555;29;20478;-68
2023/12/07 00:41:20;;;;;;;10.18;5.70;;;2.80;99.90;;;;;;4916878;29;20067;-68
2023/12/07 00:43:45;;;;;;;7.68;5.20;;;2.80;99.90;;;;;;4916580;29;20038;-68
2023/12/07 00:46:11;;;;;;;9.95;5.57;;;2.70;99.90;;;;;;4916493;29;20036;-68
2023/12/07 00:48:37;;;;;;;7.57;5.30;;;2.70;99.90;;;;;;4916500;29;20092;-67
2023/12/07 00:51:03;;;;;;;12.20;6.00;;;2.80;99.90;;;;;;4916094;29;20033;-68
2023/12/07 00:53:28;;;;;;;9.30;5.55;;;2.70;99.90;;;;;;4915654;29;20080;-67
2023/12/07 00:55:54;;;;;;;8.27;5.40;;;2.80;99.90;;;;;;4907187;29;20036;-68
2023/12/07 00:58:19;;;;;;;12.77;5.97;;;2.80;99.90;;;;;;4916702;29;20024;-68
2023/12/07 01:00:45;;;;;;;10.00;6.10;;;2.70;99.90;;;;;;4915812;29;20481;-68
2023/12/07 01:03:10;;;;;;;9.32;5.70;;;2.80;99.90;;;;;;4916830;29;20028;-67
2023/12/07 01:05:36;;;;;;;10.93;5.90;;;2.80;99.90;;;;;;4916658;29;20425;-68
2023/12/07 01:08:01;;;;;;;9.68;5.15;;;2.80;99.90;;;;;;4915105;29;20036;-68
2023/12/07 01:10:27;;;;;;;6.82;4.60;;;2.80;99.90;;;;;;4908991;29;20076;-68
2023/12/07 01:12:53;;;;;;;9.23;5.63;;;2.70;99.90;;;;;;4912555;29;20068;-68
2023/12/07 01:15:18;;;;;;;8.60;5.35;;;2.70;99.90;;;;;;4916825;29;20020;-68
2023/12/07 01:17:44;;;;;;;7.82;5.15;;;2.70;99.90;;;;;;4915090;29;20359;-68
2023/12/07 01:20:13;;;;;;;7.55;5.70;;;2.70;99.90;;;;;;4916283;29;20127;-68
2023/12/07 01:22:42;;;;;;;10.80;4.97;;;2.70;99.90;;;;;;4915541;29;20032;-67
2023/12/07 01:25:07;;;;;;;8.77;5.60;;;2.70;99.90;;;;;;4916662;29;20025;-66
2023/12/07 01:27:33;;;;;;;9.73;5.90;;;2.60;99.90;;;;;;4906514;29;20039;-68
2023/12/07 01:29:59;;;;;;;8.35;4.97;;;2.60;99.90;;;;;;4916089;29;20209;-67
2023/12/07 01:32:25;;;;;;;8.65;5.78;;;2.60;99.90;;;;;;4915439;29;20059;-67
2023/12/07 01:34:50;;;;;;;9.02;5.05;;;2.60;99.90;;;;;;4915666;29;20032;-67
2023/12/07 01:37:16;;;;;;;6.63;4.68;;;2.60;99.90;;;;;;4914836;29;20122;-68
2023/12/07 01:39:44;;;;;;;8.48;5.07;;;2.60;99.90;;;;;;4915119;29;20083;-67
2023/12/07 01:42:11;;;;;;;5.93;3.85;;;2.60;99.90;;;;;;4915748;29;20032;-67
2023/12/07 01:44:37;;;;;;;7.80;5.25;;;2.60;99.90;;;;;;4890425;29;21771;-67
2023/12/07 01:47:05;;;;;;;7.15;5.00;;;2.50;99.90;;;;;;4912542;29;20032;-68
2023/12/07 01:49:31;;;;;;;7.47;4.95;;;2.50;99.90;;;;;;4915974;29;20132;-67
2023/12/07 01:51:57;;;;;;;8.48;5.15;;;2.50;99.90;;;;;;4914936;29;20207;-67
2023/12/07 01:54:23;;;;;;;9.82;5.43;;;2.40;99.90;;;;;;4915969;29;20075;-67
2023/12/07 01:56:49;;;;;;;7.60;4.47;;;2.40;99.90;;;;;;4914686;29;20036;-67
2023/12/07 01:59:14;;;;;;;8.52;4.80;;;2.50;99.90;;;;;;4915753;29;20430;-66
2023/12/07 02:01:40;;;;;;;6.95;4.75;;;2.40;99.90;;;;;;4915167;29;20386;-65
2023/12/07 02:04:06;;;;;;;6.70;4.43;;;2.30;99.90;;;;;;4905604;29;20035;-66
2023/12/07 02:06:32;;;;;;;10.13;5.25;;;2.30;99.90;;;;;;4915158;29;20075;-66
2023/12/07 02:08:57;;;;;;;10.90;5.20;;;2.20;99.90;;;;;;4914855;29;20230;-66
2023/12/07 02:11:24;;;;;;;11.70;5.35;;;2.10;99.90;;;;;;4914734;29;20648;-67
2023/12/07 02:13:50;;;;;;;10.57;5.95;;;2.10;99.90;;;;;;4914250;29;20024;-67
2023/12/07 02:16:26;;;;;;;10.02;5.30;;;2.00;99.90;;;;;;4915191;29;20040;-66
2023/12/07 02:19:02;;;;;;;6.20;4.72;;;2.00;99.90;;;;;;4914783;29;20025;-66
2023/12/07 02:21:38;;;;;;;7.90;5.43;;;2.00;99.90;;;;;;4905183;29;20494;-67
2023/12/07 02:24:06;;;;;;;6.82;5.13;;;1.90;99.90;;;;;;4915479;29;20119;-67
2023/12/07 02:26:37;;;;;;;8.38;5.28;;;1.90;99.90;;;;;;4915475;29;20024;-66
2023/12/07 02:29:03;;;;;;;8.27;4.63;;;1.90;99.90;;;;;;4915035;29;20032;-67
2023/12/07 02:31:29;;;;;;;9.27;5.43;;;1.80;99.90;;;;;;4915407;29;20067;-67
2023/12/07 02:33:55;;;;;;;8.10;4.70;;;1.70;99.90;;;;;;4914979;29;20371;-67
2023/12/07 02:36:26;;;;;;;9.73;4.82;;;1.70;99.90;;;;;;4904787;29;20040;-67
2023/12/07 02:38:56;;;;;;;7.57;5.15;;;1.60;99.90;;;;;;4913926;29;20055;-67
2023/12/07 02:41:22;;;;;;;8.05;4.90;;;1.50;99.90;;;;;;4914658;29;20047;-67
2023/12/07 02:43:48;;;;;;;10.38;5.68;;;1.40;99.90;;;;;;4914562;29;20029;-67
2023/12/07 02:46:14;;;;;;;9.05;5.90;;;1.30;99.90;;;;;;4913397;29;20087;-66
2023/12/07 02:48:39;;;;;;;10.82;6.22;;;1.20;99.90;;;;;;4917563;29;20519;-68
2023/12/07 02:51:05;;;;;;;9.90;5.72;;;1.10;99.90;;;;;;4915072;29;20107;-68
2023/12/07 02:53:30;;;;;;;10.63;5.47;;;1.10;99.90;;;;;;4907136;29;20504;-67
2023/12/07 02:55:56;;;;;;;12.85;6.57;;;1.10;99.90;;;;;;4913675;29;20036;-67
2023/12/07 02:58:21;;;;;;;10.02;6.00;;;1.00;99.90;;;;;;4914376;29;20114;-67
2023/12/07 03:00:47;;;;;;;10.75;5.90;;;0.90;99.90;;;;;;4912657;29;20091;-68
2023/12/07 03:03:13;;;;;;;10.45;5.88;;;0.90;99.90;;;;;;4914335;29;20035;-67
2023/12/07 03:05:38;;;;;;;9.30;6.05;;;1.00;99.90;;;;;;4914351;29;20031;-66
2023/12/07 03:08:04;;;;;;;12.10;5.57;;;0.90;99.90;;;;;;4914117;29;20123;-68
2023/12/07 03:10:29;;;;;;;9.77;5.53;;;1.00;99.90;;;;;;4906148;29;20051;-69
2023/12/07 03:12:55;;;;;;;10.05;5.68;;;0.90;99.90;;;;;;4910805;29;20032;-67
2023/12/07 03:15:20;;;;;;;10.65;5.90;;;0.90;99.90;;;;;;4914564;29;20462;-68
2023/12/07 03:17:46;;;;;;;9.45;4.88;;;0.90;99.90;;;;;;4912881;29;20180;-68
2023/12/07 03:20:12;;;;;;;9.32;5.43;;;0.90;99.90;;;;;;4914734;29;20126;-68
2023/12/07 03:22:38;;;;;;;12.20;6.05;;;0.90;99.90;;;;;;4913895;29;20393;-67
2023/12/07 03:25:04;;;;;;;12.10;6.30;;;0.90;99.90;;;;;;4913827;29;20111;-67
2023/12/07 03:27:29;;;;;;;7.88;5.45;;;0.80;99.90;;;;;;4914225;29;20032;-67
2023/12/07 03:29:55;;;;;;;9.90;5.50;;;0.80;99.90;;;;;;4904800;29;20036;-67
2023/12/07 03:32:20;;;;;;;11.82;5.57;;;0.90;99.90;;;;;;4913941;29;20043;-67
2023/12/07 03:34:46;;;;;;;10.80;5.85;;;0.80;99.90;;;;;;4914037;29;20072;-68
2023/12/07 03:37:12;;;;;;;11.55;5.75;;;0.80;99.90;;;;;;4913924;29;20028;-67
2023/12/07 03:39:37;;;;;;;9.73;5.60;;;0.80;99.90;;;;;;4913162;29;20044;-68
2023/12/07 03:42:03;;;;;;;8.52;5.45;;;0.80;99.90;;;;;;4912163;29;20457;-68
2023/12/07 03:44:29;;;;;;;8.88;5.22;;;0.80;99.90;;;;;;4911836;29;20027;-68
2023/12/07 03:46:55;;;;;;;11.13;5.47;;;0.80;99.90;;;;;;4903729;29;20054;-68
2023/12/07 03:49:20;;;;;;;9.98;5.53;;;0.80;99.90;;;;;;4914248;29;20039;-67
2023/12/07 03:51:46;;;;;;;10.00;5.18;;;0.80;99.90;;;;;;4912101;29;20020;-68
2023/12/07 03:54:12;;;;;;;8.80;5.43;;;0.80;99.90;;;;;;4913919;29;20032;-68
2023/12/07 03:56:37;;;;;;;10.13;6.05;;;0.80;99.90;;;;;;4912896;29;20064;-67
2023/12/07 03:59:03;;;;;;;10.18;5.68;;;0.80;99.90;;;;;;4913118;29;20464;-67
2023/12/07 04:01:29;;;;;;;10.35;5.40;;;0.80;99.90;;;;;;4903464;29;20059;-68
2023/12/07 04:03:56;;;;;;;10.15;5.65;;;0.70;99.90;;;;;;4914328;29;20087;-68
2023/12/07 04:06:23;;;;;;;10.48;5.97;;;0.70;99.90;;;;;;4913919;29;20033;-68
2023/12/07 04:08:49;;;;;;;11.80;6.30;;;0.70;99.90;;;;;;4914773;29;20042;-68
2023/12/07 04:11:15;;;;;;;7.95;5.43;;;0.60;99.90;;;;;;4917225;29;20032;-68
2023/12/07 04:13:41;;;;;;;12.15;6.70;;;0.60;99.90;;;;;;4917568;29;20323;-68
2023/12/07 04:16:08;;;;;;;13.73;6.65;;;0.50;99.90;;;;;;4917535;29;20028;-68
2023/12/07 04:18:34;;;;;;;10.65;6.55;;;0.40;99.90;;;;;;4906434;29;20055;-68
2023/12/07 04:20:59;;;;;;;11.75;6.18;;;0.40;99.90;;;;;;4916735;29;20270;-68
2023/12/07 04:23:25;;;;;;;11.45;6.65;;;0.30;99.90;;;;;;4917795;29;20047;-67
2023/12/07 04:25:51;;;;;;;11.45;6.78;;;0.10;99.90;;;;;;4916324;29;20387;-68
2023/12/07 04:28:16;;;;;;;12.07;6.38;;;0.00;99.90;;;;;;4917060;29;20458;-68
2023/12/07 04:30:42;;;;;;;11.30;6.57;;;-0.10;99.90;;;;;;4916877;29;20040;-68
2023/12/07 04:33:08;;;;;;;10.55;7.00;;;-0.20;99.90;;;;;;4917160;29;20028;-68
2023/12/07 04:35:34;;;;;;;11.82;6.57;;;-0.30;99.90;;;;;;4908323;29;20039;-68
2023/12/07 04:38:00;;;;;;;11.18;6.63;;;-0.30;99.90;;;;;;4915952;29;20494;-66
2023/12/07 04:40:25;;;;;;;12.48;7.95;;;-0.40;99.90;;;;;;4917249;29;20087;-67
2023/12/07 04:42:51;;;;;;;13.88;7.82;;;-0.40;99.90;;;;;;4916097;29;20374;-68
2023/12/07 04:45:16;;;;;;;15.55;8.25;;;-0.40;99.90;;;;;;4916867;29;20454;-67
2023/12/07 04:47:42;;;;;;;14.35;8.27;;;-0.40;99.90;;;;;;4916416;29;20107;-68
2023/12/07 04:50:09;;;;;;;12.38;8.10;;;-0.40;99.90;;;;;;4917609;29;20111;-68
2023/12/07 04:52:35;;;;;;;15.13;8.25;;;-0.40;99.90;;;;;;4907788;29;20529;-69
2023/12/07 04:55:01;;;;;;;15.35;8.88;;;-0.40;99.90;;;;;;4916843;29;20039;-68
2023/12/07 04:57:26;;;;;;;15.05;8.70;;;-0.40;99.90;;;;;;4916971;29;20035;-67
2023/12/07 04:59:52;;;;;;;18.13;8.65;;;-0.50;99.90;;;;;;4916054;29;20032;-67
2023/12/07 05:02:18;;;;;;;12.77;8.07;;;-0.50;99.90;;;;;;4916141;29;20040;-67
2023/12/07 05:04:44;;;;;;;15.52;9.05;;;-0.50;99.90;;;;;;4916272;29;20035;-67
2023/12/07 05:07:14;;;;;;;14.00;8.48;;;-0.50;99.90;;;;;;4916300;29;20079;-67
2023/12/07 05:09:40;;;;;;;13.48;7.88;;;-0.60;99.90;;;;;;4908386;29;20036;-67
2023/12/07 05:12:06;;;;;;;13.13;7.57;;;-0.70;99.90;;;;;;4916069;29;20039;-67
2023/12/07 05:14:32;;;;;;;13.10;7.95;;;-0.80;99.90;;;;;;4916410;29;20028;-67
2023/12/07 05:16:58;;;;;;;14.00;8.13;;;-0.90;99.90;;;;;;4915303;29;20036;-66
2023/12/07 05:19:24;;;;;;;14.77;8.23;;;-1.00;99.90;;;;;;4916274;29;20099;-66
2023/12/07 05:21:51;;;;;;;14.23;8.10;;;-1.10;99.90;;;;;;4914935;29;20042;-66
2023/12/07 05:24:17;;;;;;;17.00;8.82;;;-1.20;99.90;;;;;;4916307;29;20524;-66
2023/12/07 05:26:43;;;;;;;14.65;8.70;;;-1.30;99.90;;;;;;4906461;29;20076;-67
2023/12/07 05:29:09;;;;;;;19.17;9.18;;;-1.40;99.90;;;;;;4916354;29;20071;-66
2023/12/07 05:31:36;;;;;;;18.58;9.30;;;-1.40;99.90;;;;;;4915142;29;20039;-66
2023/12/07 05:34:02;;;;;;;15.13;9.07;;;-1.50;99.90;;;;;;4915453;29;20028;-67
2023/12/07 05:36:27;;;;;;;17.52;9.93;;;-1.50;99.90;;;;;;4915321;29;20036;-67
2023/12/07 05:38:53;;;;;;;18.02;10.38;;;-1.60;99.90;;;;;;4914838;29;20052;-67
2023/12/07 05:41:19;;;;;;;18.45;10.55;;;-1.50;99.90;;;;;;4916212;29;20043;-67
2023/12/07 05:43:44;;;;;;;18.02;10.57;;;-1.50;99.90;;;;;;4915559;29;20386;-67
2023/12/07 05:46:10;;;;;;;19.25;10.30;;;-1.50;99.90;;;;;;4905875;29;20082;-67
2023/12/07 05:48:36;;;;;;;20.77;10.65;;;-1.50;99.90;;;;;;4916263;29;20488;-67
2023/12/07 05:51:02;;;;;;;19.70;10.50;;;-1.50;99.90;;;;;;4915169;29;20465;-68
2023/12/07 05:53:28;;;;;;;21.27;10.63;;;-1.50;99.90;;;;;;4916001;29;20035;-67
2023/12/07 05:55:54;;;;;;;18.67;10.35;;;-1.40;99.90;;;;;;4914456;29;20032;-68
2023/12/07 05:58:20;;;;;;;21.88;10.57;;;-1.50;99.90;;;;;;4916211;29;20169;-67
2023/12/07 06:00:46;;;;;;;19.63;10.50;;;-1.50;99.90;;;;;;4914860;29;20063;-67
2023/12/07 06:03:13;;;;;;;21.17;10.63;;;-1.50;99.90;;;;;;4905325;29;20521;-67
2023/12/07 06:05:39;;;;;;;21.52;10.20;;;-1.40;99.90;;;;;;4912265;29;20526;-67
2023/12/07 06:08:05;;;;;;;17.55;9.40;;;-1.50;99.90;;;;;;4914792;29;20036;-67
2023/12/07 06:10:30;;;;;;;16.25;9.57;;;-1.50;99.90;;;;;;4915856;29;20083;-67
2023/12/07 06:12:58;;;;;;;16.83;9.45;;;-1.60;99.90;;;;;;4888791;29;20040;-67
2023/12/07 06:15:24;;;;;;;18.92;9.60;;;-1.70;99.90;;;;;;4915687;29;20088;-66
2023/12/07 06:17:49;;;;;;;28.75;12.63;;;-1.90;99.90;;;;;;4914314;29;20024;-66
2023/12/07 06:20:15;;;;;;;22.75;12.00;;;-1.90;99.90;;;;;;4915637;29;20123;-67
2023/12/07 06:22:41;;;;;;;20.95;11.52;;;-1.80;99.90;;;;;;4913352;29;20028;-67
2023/12/07 06:25:08;;;;;;;20.17;10.77;;;-1.90;99.90;;;;;;4914922;29;20067;-70
2023/12/07 06:27:35;;;;;;;24.38;11.07;;;-1.90;99.90;;;;;;4915008;29;20138;-72
2023/12/07 06:30:00;;;;;;;22.90;11.88;;;-1.90;99.90;;;;;;4906067;29;20063;-68
2023/12/07 06:32:26;;;;;;;18.83;10.15;;;-1.90;99.90;;;;;;4913861;29;20067;-69
2023/12/07 06:34:52;;;;;;;21.92;11.10;;;-1.90;99.90;;;;;;4914666;29;20056;-68
2023/12/07 06:37:17;;;;;;;20.60;11.50;;;-2.00;99.90;;;;;;4913946;29;20032;-71
2023/12/07 06:39:43;;;;;;;22.10;11.25;;;-2.00;99.90;;;;;;4914234;29;20040;-68
2023/12/07 06:42:08;;;;;;;22.13;11.95;;;-1.90;99.90;;;;;;4914496;29;20430;-73
2023/12/07 06:44:34;;;;;;;19.75;11.68;;;-1.90;99.90;;;;;;4915130;29;20024;-70
2023/12/07 06:47:03;;;;;;;24.70;12.30;;;-1.90;99.90;;;;;;4913747;29;20024;-66
2023/12/07 06:49:28;;;;;;;22.85;11.57;;;-1.90;99.90;;;;;;4905749;29;20078;-67
2023/12/07 06:51:56;;;;;;;21.92;11.15;;;-1.80;99.90;;;;;;4914470;29;20055;-70
2023/12/07 06:54:22;;;;;;;23.20;11.15;;;-1.80;99.90;;;;;;4915913;29;20075;-69
2023/12/07 06:56:48;;;;;;;22.73;11.07;;;-1.80;99.90;;;;;;4913483;29;20450;-68
2023/12/07 06:59:13;;;;;;;20.45;10.75;;;-1.80;99.90;;;;;;4914867;29;20032;-67
2023/12/07 07:01:40;;;;;;;22.17;11.20;;;-1.80;99.90;;;;;;4916093;29;20035;-68
2023/12/07 07:04:05;;;;;;;19.83;10.57;;;-1.80;99.90;;;;;;4904727;29;20083;-68
2023/12/07 07:06:31;;;;;;;20.00;11.82;;;-1.80;99.90;;;;;;4913876;29;20115;-68
2023/12/07 07:08:57;;;;;;;22.85;12.23;;;-1.80;99.90;;;;;;4914181;29;20028;-67
2023/12/07 07:11:22;;;;;;;22.17;12.32;;;-1.80;99.90;;;;;;4914320;29;20028;-67
2023/12/07 07:13:48;;;;;;;20.30;11.50;;;-1.80;99.90;;;;;;4913592;29;20028;-68
2023/12/07 07:16:14;;;;;;;21.00;11.48;;;-1.80;99.90;;;;;;4913952;29;20092;-68
2023/12/07 07:18:40;;;;;;;24.83;12.35;;;-1.80;99.90;;;;;;4914219;29;20036;-67
2023/12/07 07:21:06;;;;;;;25.30;12.25;;;-1.80;99.90;;;;;;4904847;29;20040;-68
2023/12/07 07:23:32;;;;;;;20.42;11.38;;;-1.90;99.90;;;;;;4903729;29;20050;-68
2023/12/07 07:25:57;;;;;;;21.73;12.60;;;-1.90;99.90;;;;;;4898843;29;20032;-68
2023/12/07 07:28:23;;;;;;;22.00;11.30;;;-1.80;99.90;;;;;;4914180;29;20099;-67
2023/12/07 07:30:48;;;;;;;23.60;12.73;;;-1.90;99.90;;;;;;4911147;29;20158;-68
2023/12/07 07:33:14;;;;;;;21.63;12.77;;;-1.80;99.90;;;;;;4913811;29;20083;-69
2023/12/07 07:35:39;;;;;;;25.23;13.60;;;-1.80;99.90;;;;;;4913717;29;20170;-68
2023/12/07 07:38:05;;;;;;;21.77;12.65;;;-1.80;99.90;;;;;;4912749;29;20052;-69
2023/12/07 07:40:31;;;;;;;24.25;13.02;;;-1.70;99.90;;;;;;4914157;29;20036;-69
2023/12/07 07:42:56;;;;;;;25.13;12.93;;;-1.70;99.90;;;;;;4907770;29;20062;-68
2023/12/07 07:45:22;;;;;;;28.85;12.02;;;-1.70;99.90;;;;;;4917869;29;20055;-68
2023/12/07 07:47:47;;;;;;;25.70;12.98;;;-1.60;99.90;;;;;;4916668;29;20174;-68
2023/12/07 07:50:13;;;;;;;25.15;12.65;;;-1.60;99.90;;;;;;4917851;29;20060;-68
2023/12/07 07:52:40;;;;;;;19.02;11.60;;;-1.60;99.90;;;;;;4919352;29;20032;-67
2023/12/07 07:55:06;;;;;;;23.90;12.77;;;-1.60;99.90;;;;;;4917220;29;20107;-67
2023/12/07 07:57:31;;;;;;;27.80;12.77;;;-1.60;99.90;;;;;;4916592;29;20478;-67
2023/12/07 07:59:58;;;;;;;22.75;12.63;;;-1.50;99.90;;;;;;4916584;29;20043;-67
2023/12/07 08:02:24;;;;;;;20.90;12.15;;;-1.50;99.90;;;;;;4908337;29;20032;-66
2023/12/07 08:04:51;;;;;;;26.52;12.30;;;-1.50;99.90;;;;;;4910039;29;20032;-67
2023/12/07 08:07:17;;;;;;;26.50;13.40;;;-1.50;99.90;;;;;;4917035;29;20028;-67
2023/12/07 08:09:43;;;;;;;20.50;11.95;;;-1.50;99.90;;;;;;4915181;29;20032;-66
2023/12/07 08:12:08;;;;;;;23.35;12.93;;;-1.50;99.90;;;;;;4916594;29;20486;-66
2023/12/07 08:14:37;;;;;;;22.77;13.27;;;-1.40;99.90;;;;;;4914705;29;20052;-67
2023/12/07 08:17:03;;;;;;;22.33;13.43;;;-1.40;99.90;;;;;;4916063;29;20124;-66
2023/12/07 08:19:29;;;;;;;22.10;13.02;;;-1.30;99.90;;;;;;4915788;29;20039;-68
2023/12/07 08:21:55;;;;;;;24.60;13.50;;;-1.20;99.90;;;;;;4899261;29;20065;-67
2023/12/07 08:24:20;;;;;;;24.88;12.95;;;-1.10;99.90;;;;;;4918641;29;20043;-67
2023/12/07 08:26:46;;;;;;;24.35;14.00;;;-1.00;99.90;;;;;;4913450;29;20028;-68
2023/12/07 08:29:12;;;;;;;25.77;13.18;;;-0.90;99.90;;;;;;4916838;29;20040;-68
2023/12/07 08:31:40;;;;;;;23.60;12.80;;;-0.90;99.90;;;;;;4923797;29;20040;-67
2023/12/07 08:34:05;;;;;;;22.23;13.60;;;-0.80;99.90;;;;;;4918064;29;20497;-68
2023/12/07 08:36:31;;;;;;;22.55;13.98;;;-0.70;99.90;;;;;;4914969;29;20111;-67
2023/12/07 08:38:56;;;;;;;22.60;13.40;;;-0.70;99.90;;;;;;4915451;29;20529;-67
2023/12/07 08:41:22;;;;;;;19.98;12.38;;;-0.60;99.90;;;;;;4916195;29;20116;-67
2023/12/07 08:43:47;;;;;;;24.08;12.68;;;-0.50;99.90;;;;;;4914574;29;20028;-67
2023/12/07 08:46:13;;;;;;;20.67;12.77;;;-0.40;99.90;;;;;;4915723;29;20489;-67
2023/12/07 08:48:39;;;;;;;22.88;13.25;;;-0.40;99.90;;;;;;4916210;29;20032;-67
2023/12/07 08:51:04;;;;;;;24.23;13.55;;;-0.30;99.90;;;;;;4898219;29;20044;-67
2023/12/07 08:53:30;;;;;;;21.83;12.65;;;-0.20;99.90;;;;;;4910269;29;20043;-67
2023/12/07 08:55:55;;;;;;;21.35;13.30;;;-0.20;99.90;;;;;;4913452;29;20111;-67
2023/12/07 08:58:21;;;;;;;19.65;11.65;;;-0.10;99.90;;;;;;4914729;29;20032;-66
2023/12/07 09:00:47;;;;;;;19.27;10.90;;;0.00;99.90;;;;;;4914773;29;20040;-66
2023/12/07 09:03:13;;;;;;;21.83;12.05;;;0.10;99.90;;;;;;4915058;29;20036;-66
2023/12/07 09:05:38;;;;;;;16.77;10.93;;;0.10;99.90;;;;;;4915769;29;20036;-67
2023/12/07 09:08:04;;;;;;;18.00;11.95;;;0.10;99.90;;;;;;4915225;29;20052;-67
2023/12/07 09:10:30;;;;;;;23.48;13.55;;;0.20;99.90;;;;;;4915894;29;20047;-67
2023/12/07 09:12:56;;;;;;;25.20;14.50;;;0.20;99.90;;;;;;4914821;29;20040;-67
2023/12/07 09:15:22;;;;;;;24.48;13.88;;;0.30;99.90;;;;;;4915723;29;20024;-67
2023/12/07 09:17:48;;;;;;;24.27;14.30;;;0.40;99.90;;;;;;4914618;29;20087;-67
2023/12/07 09:20:14;;;;;;;23.27;14.35;;;0.50;99.90;;;;;;4915481;29;20064;-67
2023/12/07 09:22:48;;;;;;;27.00;15.05;;;0.60;99.90;;;;;;4914851;29;20498;-67
2023/12/07 09:25:15;;;;;;;19.38;13.20;;;0.80;99.90;;;;;;4913461;29;20051;-67
2023/12/07 09:27:43;;;;;;;24.75;14.35;;;0.90;99.90;;;;;;4912786;29;20043;-67
2023/12/07 09:30:12;;;;;;;20.23;13.40;;;0.90;99.90;;;;;;4917571;29;20107;-67
2023/12/07 09:32:39;;;;;;;24.30;13.73;;;1.00;99.90;;;;;;4918550;29;20032;-67
2023/12/07 09:35:10;;;;;;;19.85;12.95;;;1.00;99.90;;;;;;4917841;29;20032;-68
2023/12/07 09:37:35;;;;;;;21.67;13.65;;;1.10;99.90;;;;;;4914937;29;20056;-65
2023/12/07 09:40:04;;;;;;;20.10;12.82;;;1.10;99.90;;;;;;4915050;29;20024;-67
2023/12/07 09:42:30;;;;;;;19.58;12.68;;;1.20;99.90;;;;;;4914822;29;20036;-68
2023/12/07 09:44:55;;;;;;;23.58;14.35;;;1.20;99.90;;;;;;4915212;29;20481;-68
2023/12/07 09:47:21;;;;;;;21.50;14.25;;;1.30;99.90;;;;;;4913026;29;20024;-68
2023/12/07 09:49:47;;;;;;;20.13;12.00;;;1.50;99.90;;;;;;4913644;29;20067;-67
2023/12/07 09:52:14;;;;;;;21.48;12.30;;;1.60;99.90;;;;;;4917827;29;20039;-68
2023/12/07 09:54:44;;;;;;;21.67;11.98;;;1.60;99.90;;;;;;4904984;29;20064;-67
2023/12/07 09:57:09;;;;;;;;;;;1.70;99.90;;;;;;4916843;29;20052;-67
2023/12/07 09:59:36;;;;;;;21.98;11.65;;;1.80;99.90;;;;;;4914692;29;20368;-67
2023/12/07 10:02:02;;;;;;;25.65;14.25;;;1.80;99.90;;;;;;4912907;29;20090;-67
2023/12/07 10:04:27;;;;;;;20.88;12.90;;;1.90;99.90;;;;;;4923191;29;20482;-67
2023/12/07 10:06:54;;;;;;;20.42;12.93;;;2.10;99.90;;;;;;4916348;29;20032;-67
2023/12/07 10:09:21;;;;;;;20.75;11.93;;;2.20;99.90;;;;;;4916089;29;20151;-67
2023/12/07 10:11:47;;;;;;;21.23;12.77;;;2.20;99.90;;;;;;4915854;29;20063;-66
2023/12/07 10:14:13;;;;;;;19.15;12.50;;;2.30;99.90;;;;;;4926389;29;20060;-67
2023/12/07 10:16:53;;;;;;;20.33;12.57;;;2.30;99.90;;;;;;4913240;29;20092;-67
2023/12/07 10:19:21;;;;;;;18.63;11.32;;;2.40;99.90;;;;;;4913376;29;20054;-67
2023/12/07 10:21:47;;;;;;;17.05;11.48;;;2.50;99.90;;;;;;4913244;29;20050;-67
2023/12/07 10:24:15;;;;;;;17.20;10.63;;;2.60;99.90;;;;;;4912837;29;20032;-67
2023/12/07 10:26:41;;;;;;;18.40;10.07;;;2.70;99.90;;;;;;4916024;29;20037;-67
2023/12/07 10:29:06;;;;;;;17.63;10.38;;;2.70;99.90;;;;;;4918114;29;20115;-67
2023/12/07 10:31:33;;;;;;;18.00;11.27;;;2.80;99.90;;;;;;4924754;29;20028;-67
2023/12/07 10:34:00;;;;;;;20.17;11.30;;;2.90;99.90;;;;;;4912299;29;20039;-67
2023/12/07 10:36:26;;;;;;;16.60;10.27;;;2.90;99.90;;;;;;4912995;29;20040;-67
2023/12/07 10:38:52;;;;;;;18.38;11.40;;;3.00;99.90;;;;;;4916661;29;20126;-67
2023/12/07 10:41:20;;;;;;;18.75;10.85;;;3.10;99.90;;;;;;4913989;29;20056;-67
2023/12/07 10:43:51;;;;;;;15.75;8.35;;;3.10;99.90;;;;;;4922666;29;20028;-67
2023/12/07 10:46:20;;;;;;;15.57;7.75;;;3.20;99.90;;;;;;4904382;29;20043;-67
2023/12/07 10:48:50;;;;;;;10.75;7.03;;;3.20;99.90;;;;;;4916642;29;20090;-68
2023/12/07 10:51:27;;;;;;;15.45;7.50;;;3.30;99.90;;;;;;4918985;29;20478;-68
2023/12/07 10:53:54;;;;;;;14.55;7.50;;;3.40;99.90;;;;;;4896985;29;20031;-68
2023/12/07 10:56:32;;;;;;;12.30;5.85;;;3.50;99.90;;;;;;4914117;29;20470;-67
2023/12/07 10:58:58;;;;;;;10.32;5.40;;;3.70;99.90;;;;;;4914302;29;20441;-71
2023/12/07 11:01:25;;;;;;;9.52;4.97;;;3.90;99.90;;;;;;4914262;29;20035;-70
2023/12/07 11:03:55;;;;;;;6.32;4.68;;;;;;;;;;4912986;29;20377;-66
2023/12/07 11:06:23;;;;;;;9.18;4.70;;;;;;;;;;4907533;29;20099;-66
2023/12/07 11:08:55;;;;;;;7.00;4.03;;;;;;;;;;4913732;29;20106;-67
2023/12/07 11:11:39;;;;;;;6.22;4.05;;;;;;;;;;4913822;29;20032;-67
2023/12/07 11:14:07;;;;;;;6.43;4.28;;;;;;;;;;4900004;29;20032;-66
2023/12/07 11:16:35;;;;;;;7.13;4.03;;;;;;;;;;4915838;29;20084;-66
2023/12/07 11:19:01;;;;;;;7.45;4.90;;;;;;;;;;4906323;29;20020;-66
2023/12/07 11:21:27;;;;;;;9.15;4.22;;;;;;;;;;4913446;29;20548;-66
2023/12/07 11:23:54;;;;;;;6.03;3.95;;;;;;;;;;4914966;29;20028;-67
2023/12/07 11:26:26;;;;;;;4.25;3.55;;;4.70;99.90;;;;;;4921674;29;20434;-66
2023/12/07 11:28:54;;;;;;;6.47;4.15;;;4.60;99.90;;;;;;4913886;29;20042;-67
2023/12/07 11:31:21;;;;;;;7.93;4.28;;;4.60;99.90;;;;;;4913546;29;20072;-66
2023/12/07 11:33:47;;;;;;;7.15;4.13;;;4.60;99.90;;;;;;4913055;29;20036;-66
2023/12/07 11:36:13;;;;;;;4.25;3.30;;;4.60;99.90;;;;;;4913561;29;20036;-68
2023/12/07 11:39:06;;;;;;;6.38;4.18;;;4.60;99.90;;;;;;4913745;29;20111;-66
2023/12/07 11:41:44;;;;;;;6.60;3.75;;;4.60;99.90;;;;;;4906318;29;20033;-67
2023/12/07 11:44:10;;;;;;;5.68;3.13;;;4.70;99.90;;;;;;4914452;29;20028;-66
2023/12/07 11:46:39;;;;;;;4.50;3.40;;;4.70;99.90;;;;;;4914102;29;20106;-68
2023/12/07 11:49:10;;;;;;;4.85;3.50;;;4.70;99.90;;;;;;4912780;29;20065;-66
2023/12/07 11:51:36;;;;;;;6.32;2.92;;;4.80;99.90;;;;;;4916899;29;20028;-67
2023/12/07 11:54:01;;;;;;;4.45;2.72;;;4.80;99.90;;;;;;4906960;29;20183;-66
2023/12/07 11:56:27;;;;;;;4.93;3.83;;;4.80;99.90;;;;;;4913703;29;20039;-67
2023/12/07 11:58:53;;;;;;;4.22;3.35;;;4.90;99.90;;;;;;4912466;29;20039;-66
2023/12/07 12:01:18;;;;;;;5.32;3.65;;;4.90;99.90;;;;;;4913206;29;20162;-67
2023/12/07 12:03:44;;;;;;;4.90;3.80;;;4.90;99.90;;;;;;4912547;29;20036;-66
2023/12/07 12:06:11;;;;;;;5.65;4.13;;;4.90;99.90;;;;;;4913802;29;20036;-66
2023/12/07 12:08:37;;;;;;;5.72;4.03;;;4.90;99.90;;;;;;4913494;29;20036;-66
2023/12/07 12:11:04;;;;;;;6.05;3.97;;;5.00;99.90;;;;;;4912351;29;20599;-67
2023/12/07 12:13:34;;;;;;;9.15;5.25;;;5.00;99.90;;;;;;4914346;29;20080;-67
2023/12/07 12:16:00;;;;;;;8.68;5.05;;;5.00;99.90;;;;;;4912717;29;20020;-67
2023/12/07 12:18:27;;;;;;;7.60;5.20;;;5.00;99.90;;;;;;4914041;29;20043;-67
2023/12/07 12:20:53;;;;;;;8.63;4.40;;;4.90;99.90;;;;;;4911808;29;20040;-67
2023/12/07 12:23:20;;;;;;;7.60;4.90;;;4.80;99.90;;;;;;4913960;29;20051;-67
2023/12/07 12:25:46;;;;;;;8.40;5.22;;;4.80;99.90;;;;;;4912072;29;20058;-68
2023/12/07 12:28:16;;;;;;;6.20;4.10;;;4.70;99.90;;;;;;4913421;29;20032;-67
2023/12/07 12:30:42;;;;;;;7.68;4.55;;;4.70;99.90;;;;;;4908256;29;20126;-67
2023/12/07 12:33:07;;;;;;;6.82;3.90;;;4.60;99.90;;;;;;4916559;29;20036;-67
2023/12/07 12:35:33;;;;;;;8.45;4.90;;;4.70;99.90;;;;;;4916482;29;20024;-67
2023/12/07 12:37:59;;;;;;;8.50;5.15;;;4.60;99.90;;;;;;4915350;29;20071;-67
2023/12/07 12:40:29;;;;;;;9.13;5.20;;;4.60;99.90;;;;;;4916120;29;20028;-67